sensor_id;sensor_type;location;lat;lon;timestamp;temperature;humidity
76967;DHT22;65904;52.278;20.972;2023-04-07T00:00:15;4.70;99.90
76967;DHT22;65904;52.278;20.972;2023-04-07T00:03:17;4.70;99.90
76967;DHT22;65904;52.278;20.972;2023-04-07T00:06:04;4.80;99.90
76967;DHT22;65904;52.278;20.972;2023-04-07T00:08:50;4.80;99.90
76967;DHT22;65904;52.278;20.972;2023-04-07T00:11:36;4.80;99.90
76967;DHT22;65904;52.278;20.972;2023-04-07T00:14:22;4.80;99.90
76967;DHT22;65904;52.278;20.972;2023-04-07T00:17:10;4.80;99.90
76967;DHT22;65904;52.278;20.972;2023-04-07T00:19:55;4.80;99.90
76967;DHT22;65904;52.278;20.972;2023-04-07T00:22:41;4.80;99.90
76967;DHT22;65904;52.278;20.972;2023-04-07T00:25:28;4.90;99.90
76967;DHT22;65904;52.278;20.972;2023-04-07T00:28:14;4.80;99.90
76967;DHT22;65904;52.278;20.972;2023-04-07T00:31:00;4.90;99.90
76967;DHT22;65904;52.278;20.972;2023-04-07T00:33:47;4.90;99.90
76967;DHT22;65904;52.278;20.972;2023-04-07T00:36:33;4.90;99.90
76967;DHT22;65904;52.278;20.972;2023-04-07T00:39:20;4.90;99.90
76967;DHT22;65904;52.278;20.972;2023-04-07T00:42:06;4.90;99.90
76967;DHT22;65904;52.278;20.972;2023-04-07T00:44:52;4.90;99.90
76967;DHT22;65904;52.278;20.972;2023-04-07T00:47:39;4.90;99.90
76967;DHT22;65904;52.278;20.972;2023-04-07T00:50:27;5.00;99.90
76967;DHT22;65904;52.278;20.972;2023-04-07T00:53:12;5.00;99.90
76967;DHT22;65904;52.278;20.972;2023-04-07T00:55:58;5.00;99.90
76967;DHT22;65904;52.278;20.972;2023-04-07T00:58:45;5.00;99.90
76967;DHT22;65904;52.278;20.972;2023-04-07T01:01:35;5.00;99.90
76967;DHT22;65904;52.278;20.972;2023-04-07T01:04:29;5.00;99.90
76967;DHT22;65904;52.278;20.972;2023-04-07T01:07:23;5.00;99.90
76967;DHT22;65904;52.278;20.972;2023-04-07T01:10:27;5.10;99.90
76967;DHT22;65904;52.278;20.972;2023-04-07T01:13:24;5.10;99.90
76967;DHT22;65904;52.278;20.972;2023-04-07T01:16:22;5.10;99.90
76967;DHT22;65904;52.278;20.972;2023-04-07T01:19:15;5.10;99.90
76967;DHT22;65904;52.278;20.972;2023-04-07T01:22:11;5.10;99.90
76967;DHT22;65904;52.278;20.972;2023-04-07T01:25:17;5.20;99.90
76967;DHT22;65904;52.278;20.972;2023-04-07T01:28:14;5.20;99.90
76967;DHT22;65904;52.278;20.972;2023-04-07T01:31:08;5.20;99.90
76967;DHT22;65904;52.278;20.972;2023-04-07T01:33:57;5.20;99.90
76967;DHT22;65904;52.278;20.972;2023-04-07T01:36:46;5.20;99.90
76967;DHT22;65904;52.278;20.972;2023-04-07T01:39:33;5.30;99.90
76967;DHT22;65904;52.278;20.972;2023-04-07T01:42:21;5.30;99.90
76967;DHT22;65904;52.278;20.972;2023-04-07T01:45:07;5.30;99.90
76967;DHT22;65904;52.278;20.972;2023-04-07T01:47:55;5.30;99.90
76967;DHT22;65904;52.278;20.972;2023-04-07T01:50:42;5.30;99.90
76967;DHT22;65904;52.278;20.972;2023-04-07T01:53:29;5.30;99.90
76967;DHT22;65904;52.278;20.972;2023-04-07T01:56:15;5.40;99.90
76967;DHT22;65904;52.278;20.972;2023-04-07T01:59:05;5.40;99.90
76967;DHT22;65904;52.278;20.972;2023-04-07T02:01:51;5.40;99.90
76967;DHT22;65904;52.278;20.972;2023-04-07T02:04:43;5.40;99.90
76967;DHT22;65904;52.278;20.972;2023-04-07T02:07:39;5.40;99.90
76967;DHT22;65904;52.278;20.972;2023-04-07T02:10:28;5.40;99.90
76967;DHT22;65904;52.278;20.972;2023-04-07T02:13:19;5.50;99.90
76967;DHT22;65904;52.278;20.972;2023-04-07T02:16:07;5.50;99.90
76967;DHT22;65904;52.278;20.972;2023-04-07T02:18:54;5.50;99.90
76967;DHT22;65904;52.278;20.972;2023-04-07T02:21:43;5.50;99.90
76967;DHT22;65904;52.278;20.972;2023-04-07T02:24:30;5.50;99.90
76967;DHT22;65904;52.278;20.972;2023-04-07T02:27:16;5.50;99.90
76967;DHT22;65904;52.278;20.972;2023-04-07T02:30:05;5.60;99.90
76967;DHT22;65904;52.278;20.972;2023-04-07T02:32:51;5.60;99.90
76967;DHT22;65904;52.278;20.972;2023-04-07T02:35:38;5.60;99.90
76967;DHT22;65904;52.278;20.972;2023-04-07T02:38:25;5.60;99.90
76967;DHT22;65904;52.278;20.972;2023-04-07T02:41:11;5.70;99.90
76967;DHT22;65904;52.278;20.972;2023-04-07T02:43:58;5.70;99.90
76967;DHT22;65904;52.278;20.972;2023-04-07T02:46:44;5.70;99.90
76967;DHT22;65904;52.278;20.972;2023-04-07T02:49:30;5.70;99.90
76967;DHT22;65904;52.278;20.972;2023-04-07T02:52:17;5.70;99.90
76967;DHT22;65904;52.278;20.972;2023-04-07T02:55:06;5.80;99.90
76967;DHT22;65904;52.278;20.972;2023-04-07T02:57:53;5.80;99.90
76967;DHT22;65904;52.278;20.972;2023-04-07T03:00:50;5.80;99.90
76967;DHT22;65904;52.278;20.972;2023-04-07T03:03:39;5.80;99.90
76967;DHT22;65904;52.278;20.972;2023-04-07T03:06:39;5.80;99.90
76967;DHT22;65904;52.278;20.972;2023-04-07T03:09:30;5.80;99.90
76967;DHT22;65904;52.278;20.972;2023-04-07T03:12:17;5.80;99.90
76967;DHT22;65904;52.278;20.972;2023-04-07T03:15:03;5.90;99.90
76967;DHT22;65904;52.278;20.972;2023-04-07T03:17:51;5.80;99.90
76967;DHT22;65904;52.278;20.972;2023-04-07T03:20:38;5.90;99.90
76967;DHT22;65904;52.278;20.972;2023-04-07T03:23:29;5.90;99.90
76967;DHT22;65904;52.278;20.972;2023-04-07T03:26:16;5.90;99.90
76967;DHT22;65904;52.278;20.972;2023-04-07T03:29:04;5.90;99.90
76967;DHT22;65904;52.278;20.972;2023-04-07T03:31:51;5.90;99.90
76967;DHT22;65904;52.278;20.972;2023-04-07T03:34:41;5.90;99.90
76967;DHT22;65904;52.278;20.972;2023-04-07T03:37:27;6.00;99.90
76967;DHT22;65904;52.278;20.972;2023-04-07T03:40:14;5.90;99.90
76967;DHT22;65904;52.278;20.972;2023-04-07T03:43:00;6.00;99.90
76967;DHT22;65904;52.278;20.972;2023-04-07T03:45:49;6.00;99.90
76967;DHT22;65904;52.278;20.972;2023-04-07T03:48:39;6.00;99.90
76967;DHT22;65904;52.278;20.972;2023-04-07T03:51:26;6.00;99.90
76967;DHT22;65904;52.278;20.972;2023-04-07T03:54:14;6.10;99.90
76967;DHT22;65904;52.278;20.972;2023-04-07T03:57:02;6.20;99.90
76967;DHT22;65904;52.278;20.972;2023-04-07T03:59:53;6.10;99.90
76967;DHT22;65904;52.278;20.972;2023-04-07T04:02:41;6.10;99.90
76967;DHT22;65904;52.278;20.972;2023-04-07T04:05:29;6.10;99.90
76967;DHT22;65904;52.278;20.972;2023-04-07T04:08:16;6.20;99.90
76967;DHT22;65904;52.278;20.972;2023-04-07T04:11:02;6.20;99.90
76967;DHT22;65904;52.278;20.972;2023-04-07T04:13:54;6.20;99.90
76967;DHT22;65904;52.278;20.972;2023-04-07T04:16:41;6.20;99.90
76967;DHT22;65904;52.278;20.972;2023-04-07T04:19:42;6.20;99.90
76967;DHT22;65904;52.278;20.972;2023-04-07T04:22:39;6.20;99.90
76967;DHT22;65904;52.278;20.972;2023-04-07T04:25:25;6.20;99.90
76967;DHT22;65904;52.278;20.972;2023-04-07T04:28:14;6.30;99.90
76967;DHT22;65904;52.278;20.972;2023-04-07T04:31:01;6.30;99.90
76967;DHT22;65904;52.278;20.972;2023-04-07T04:33:52;6.30;99.90
76967;DHT22;65904;52.278;20.972;2023-04-07T04:36:40;6.30;99.90
76967;DHT22;65904;52.278;20.972;2023-04-07T04:39:26;6.30;99.90
76967;DHT22;65904;52.278;20.972;2023-04-07T04:42:12;6.40;99.90
76967;DHT22;65904;52.278;20.972;2023-04-07T04:45:01;6.40;99.90
76967;DHT22;65904;52.278;20.972;2023-04-07T04:47:48;6.40;99.90
76967;DHT22;65904;52.278;20.972;2023-04-07T04:50:34;6.40;99.90
76967;DHT22;65904;52.278;20.972;2023-04-07T04:53:27;6.40;99.90
76967;DHT22;65904;52.278;20.972;2023-04-07T04:56:16;6.50;99.90
76967;DHT22;65904;52.278;20.972;2023-04-07T04:59:05;6.50;99.90
76967;DHT22;65904;52.278;20.972;2023-04-07T05:02:01;6.50;99.90
76967;DHT22;65904;52.278;20.972;2023-04-07T05:04:47;6.50;99.90
76967;DHT22;65904;52.278;20.972;2023-04-07T05:07:39;6.50;99.90
76967;DHT22;65904;52.278;20.972;2023-04-07T05:10:30;6.50;99.90
76967;DHT22;65904;52.278;20.972;2023-04-07T05:13:16;6.50;99.90
76967;DHT22;65904;52.278;20.972;2023-04-07T05:16:04;6.60;99.90
76967;DHT22;65904;52.278;20.972;2023-04-07T05:18:51;6.50;99.90
76967;DHT22;65904;52.278;20.972;2023-04-07T05:21:38;6.60;99.90
76967;DHT22;65904;52.278;20.972;2023-04-07T05:24:27;6.60;99.90
76967;DHT22;65904;52.278;20.972;2023-04-07T05:27:19;6.60;99.90
76967;DHT22;65904;52.278;20.972;2023-04-07T05:30:10;6.60;99.90
76967;DHT22;65904;52.278;20.972;2023-04-07T05:32:57;6.70;99.90
76967;DHT22;65904;52.278;20.972;2023-04-07T05:36:02;6.70;99.90
76967;DHT22;65904;52.278;20.972;2023-04-07T05:38:51;6.70;99.90
76967;DHT22;65904;52.278;20.972;2023-04-07T05:41:37;6.80;99.90
76967;DHT22;65904;52.278;20.972;2023-04-07T05:44:24;6.80;99.90
76967;DHT22;65904;52.278;20.972;2023-04-07T05:47:10;6.90;99.90
76967;DHT22;65904;52.278;20.972;2023-04-07T05:49:58;6.90;99.90
76967;DHT22;65904;52.278;20.972;2023-04-07T05:52:44;7.00;99.90
76967;DHT22;65904;52.278;20.972;2023-04-07T05:55:41;7.00;99.90
76967;DHT22;65904;52.278;20.972;2023-04-07T05:58:30;7.10;99.90
76967;DHT22;65904;52.278;20.972;2023-04-07T06:01:18;7.10;99.90
76967;DHT22;65904;52.278;20.972;2023-04-07T06:04:05;7.20;99.90
76967;DHT22;65904;52.278;20.972;2023-04-07T06:06:51;7.20;99.90
76967;DHT22;65904;52.278;20.972;2023-04-07T06:09:38;7.20;99.90
76967;DHT22;65904;52.278;20.972;2023-04-07T06:12:27;7.20;99.90
76967;DHT22;65904;52.278;20.972;2023-04-07T06:15:13;7.20;99.90
76967;DHT22;65904;52.278;20.972;2023-04-07T06:18:01;7.20;99.90
76967;DHT22;65904;52.278;20.972;2023-04-07T06:20:48;7.20;99.90
76967;DHT22;65904;52.278;20.972;2023-04-07T06:23:34;7.20;99.90
76967;DHT22;65904;52.278;20.972;2023-04-07T06:26:24;7.20;99.90
76967;DHT22;65904;52.278;20.972;2023-04-07T06:29:13;7.30;99.90
76967;DHT22;65904;52.278;20.972;2023-04-07T06:32:00;7.40;99.90
76967;DHT22;65904;52.278;20.972;2023-04-07T06:34:48;7.40;99.90
76967;DHT22;65904;52.278;20.972;2023-04-07T06:37:34;7.50;99.90
76967;DHT22;65904;52.278;20.972;2023-04-07T06:40:20;7.60;99.90
76967;DHT22;65904;52.278;20.972;2023-04-07T06:43:06;7.70;99.90
76967;DHT22;65904;52.278;20.972;2023-04-07T06:46:06;7.70;99.90
76967;DHT22;65904;52.278;20.972;2023-04-07T06:48:52;7.80;99.90
76967;DHT22;65904;52.278;20.972;2023-04-07T06:51:39;7.90;99.90
76967;DHT22;65904;52.278;20.972;2023-04-07T06:54:25;8.00;99.90
76967;DHT22;65904;52.278;20.972;2023-04-07T06:57:11;8.10;99.90
76967;DHT22;65904;52.278;20.972;2023-04-07T06:59:58;8.20;99.90
76967;DHT22;65904;52.278;20.972;2023-04-07T07:02:44;8.30;99.90
76967;DHT22;65904;52.278;20.972;2023-04-07T07:05:30;8.30;99.90
76967;DHT22;65904;52.278;20.972;2023-04-07T07:08:18;8.40;99.90
76967;DHT22;65904;52.278;20.972;2023-04-07T07:11:04;8.40;99.90
76967;DHT22;65904;52.278;20.972;2023-04-07T07:13:50;8.40;99.90
76967;DHT22;65904;52.278;20.972;2023-04-07T07:16:36;8.50;99.90
76967;DHT22;65904;52.278;20.972;2023-04-07T07:19:22;8.40;99.90
76967;DHT22;65904;52.278;20.972;2023-04-07T07:22:08;8.50;99.90
76967;DHT22;65904;52.278;20.972;2023-04-07T07:24:56;8.50;99.90
76967;DHT22;65904;52.278;20.972;2023-04-07T07:27:42;8.50;99.90
76967;DHT22;65904;52.278;20.972;2023-04-07T07:30:28;8.60;99.90
76967;DHT22;65904;52.278;20.972;2023-04-07T07:33:15;8.70;99.90
76967;DHT22;65904;52.278;20.972;2023-04-07T07:36:01;8.80;99.90
76967;DHT22;65904;52.278;20.972;2023-04-07T07:38:49;9.00;99.90
76967;DHT22;65904;52.278;20.972;2023-04-07T07:41:36;9.10;99.90
76967;DHT22;65904;52.278;20.972;2023-04-07T07:44:23;9.10;99.90
76967;DHT22;65904;52.278;20.972;2023-04-07T07:47:09;9.20;99.90
76967;DHT22;65904;52.278;20.972;2023-04-07T07:49:55;9.30;99.90
76967;DHT22;65904;52.278;20.972;2023-04-07T07:52:42;9.30;99.90
76967;DHT22;65904;52.278;20.972;2023-04-07T07:55:27;9.40;99.90
76967;DHT22;65904;52.278;20.972;2023-04-07T07:58:15;9.30;99.90
76967;DHT22;65904;52.278;20.972;2023-04-07T08:01:01;9.30;99.90
76967;DHT22;65904;52.278;20.972;2023-04-07T08:03:47;9.30;99.90
76967;DHT22;65904;52.278;20.972;2023-04-07T08:06:33;9.20;99.90
76967;DHT22;65904;52.278;20.972;2023-04-07T08:09:20;9.20;99.90
76967;DHT22;65904;52.278;20.972;2023-04-07T08:12:06;9.20;99.90
76967;DHT22;65904;52.278;20.972;2023-04-07T08:14:54;9.10;99.90
76967;DHT22;65904;52.278;20.972;2023-04-07T08:17:40;9.10;99.90
76967;DHT22;65904;52.278;20.972;2023-04-07T08:20:27;9.10;99.90
76967;DHT22;65904;52.278;20.972;2023-04-07T08:23:13;9.10;99.90
76967;DHT22;65904;52.278;20.972;2023-04-07T08:25:59;9.30;99.90
76967;DHT22;65904;52.278;20.972;2023-04-07T08:28:45;9.40;99.90
76967;DHT22;65904;52.278;20.972;2023-04-07T08:31:33;9.60;99.90
76967;DHT22;65904;52.278;20.972;2023-04-07T08:34:19;9.70;99.90
76967;DHT22;65904;52.278;20.972;2023-04-07T08:37:05;9.60;99.90
76967;DHT22;65904;52.278;20.972;2023-04-07T08:39:53;9.60;99.90
76967;DHT22;65904;52.278;20.972;2023-04-07T08:42:42;9.60;99.90
76967;DHT22;65904;52.278;20.972;2023-04-07T08:45:29;9.70;99.90
76967;DHT22;65904;52.278;20.972;2023-04-07T08:48:20;9.80;99.90
76967;DHT22;65904;52.278;20.972;2023-04-07T08:51:09;9.80;99.90
76967;DHT22;65904;52.278;20.972;2023-04-07T08:54:03;9.90;99.90
76967;DHT22;65904;52.278;20.972;2023-04-07T08:56:50;9.90;99.90
76967;DHT22;65904;52.278;20.972;2023-04-07T08:59:38;10.00;99.90
76967;DHT22;65904;52.278;20.972;2023-04-07T09:02:27;10.20;99.90
76967;DHT22;65904;52.278;20.972;2023-04-07T09:05:15;10.20;99.90
76967;DHT22;65904;52.278;20.972;2023-04-07T09:08:01;10.30;99.90
76967;DHT22;65904;52.278;20.972;2023-04-07T09:10:48;10.30;99.90
76967;DHT22;65904;52.278;20.972;2023-04-07T09:13:34;10.40;99.90
76967;DHT22;65904;52.278;20.972;2023-04-07T09:16:20;10.50;99.90
76967;DHT22;65904;52.278;20.972;2023-04-07T09:19:07;10.60;99.90
76967;DHT22;65904;52.278;20.972;2023-04-07T09:21:54;10.70;99.90
76967;DHT22;65904;52.278;20.972;2023-04-07T09:24:40;10.70;99.90
76967;DHT22;65904;52.278;20.972;2023-04-07T09:27:26;10.80;99.90
76967;DHT22;65904;52.278;20.972;2023-04-07T09:30:13;10.90;99.90
76967;DHT22;65904;52.278;20.972;2023-04-07T09:33:01;11.00;99.90
76967;DHT22;65904;52.278;20.972;2023-04-07T09:35:50;11.10;99.90
76967;DHT22;65904;52.278;20.972;2023-04-07T09:38:40;10.90;99.90
76967;DHT22;65904;52.278;20.972;2023-04-07T09:41:26;10.90;99.90
76967;DHT22;65904;52.278;20.972;2023-04-07T09:44:13;10.90;99.90
76967;DHT22;65904;52.278;20.972;2023-04-07T09:46:59;11.00;99.90
76967;DHT22;65904;52.278;20.972;2023-04-07T09:49:50;11.00;99.90
76967;DHT22;65904;52.278;20.972;2023-04-07T09:52:55;11.00;99.90
76967;DHT22;65904;52.278;20.972;2023-04-07T09:55:43;11.00;99.90
76967;DHT22;65904;52.278;20.972;2023-04-07T09:58:29;11.10;99.90
76967;DHT22;65904;52.278;20.972;2023-04-07T10:01:16;11.30;99.90
76967;DHT22;65904;52.278;20.972;2023-04-07T10:04:02;11.40;99.90
76967;DHT22;65904;52.278;20.972;2023-04-07T10:06:50;11.60;99.90
76967;DHT22;65904;52.278;20.972;2023-04-07T10:09:36;11.70;99.90
76967;DHT22;65904;52.278;20.972;2023-04-07T10:12:24;11.80;99.90
76967;DHT22;65904;52.278;20.972;2023-04-07T10:15:12;11.80;99.90
76967;DHT22;65904;52.278;20.972;2023-04-07T10:17:59;12.00;99.90
76967;DHT22;65904;52.278;20.972;2023-04-07T10:20:48;12.10;99.90
76967;DHT22;65904;52.278;20.972;2023-04-07T10:23:48;12.20;99.90
76967;DHT22;65904;52.278;20.972;2023-04-07T10:26:37;12.10;99.90
76967;DHT22;65904;52.278;20.972;2023-04-07T10:29:28;12.10;99.90
76967;DHT22;65904;52.278;20.972;2023-04-07T10:32:16;12.00;99.90
76967;DHT22;65904;52.278;20.972;2023-04-07T10:35:02;11.90;99.90
76967;DHT22;65904;52.278;20.972;2023-04-07T10:38:10;12.00;99.90
76967;DHT22;65904;52.278;20.972;2023-04-07T10:40:57;12.00;99.90
76967;DHT22;65904;52.278;20.972;2023-04-07T10:43:43;12.00;99.90
76967;DHT22;65904;52.278;20.972;2023-04-07T10:47:04;11.90;99.90
76967;DHT22;65904;52.278;20.972;2023-04-07T10:50:16;12.00;99.90
76967;DHT22;65904;52.278;20.972;2023-04-07T10:53:06;12.10;99.90
76967;DHT22;65904;52.278;20.972;2023-04-07T10:55:54;12.20;99.90
76967;DHT22;65904;52.278;20.972;2023-04-07T10:58:40;12.20;99.90
76967;DHT22;65904;52.278;20.972;2023-04-07T11:01:27;12.10;99.90
76967;DHT22;65904;52.278;20.972;2023-04-07T11:04:14;12.10;99.90
76967;DHT22;65904;52.278;20.972;2023-04-07T11:07:00;12.10;99.90
76967;DHT22;65904;52.278;20.972;2023-04-07T11:09:46;12.20;99.90
76967;DHT22;65904;52.278;20.972;2023-04-07T11:12:32;12.30;99.90
76967;DHT22;65904;52.278;20.972;2023-04-07T11:15:19;12.40;99.90
76967;DHT22;65904;52.278;20.972;2023-04-07T11:18:12;12.50;99.90
76967;DHT22;65904;52.278;20.972;2023-04-07T11:20:59;12.80;99.90
76967;DHT22;65904;52.278;20.972;2023-04-07T11:23:46;13.10;99.90
76967;DHT22;65904;52.278;20.972;2023-04-07T11:26:36;13.30;99.90
76967;DHT22;65904;52.278;20.972;2023-04-07T11:29:27;13.50;99.90
76967;DHT22;65904;52.278;20.972;2023-04-07T11:32:13;13.50;99.90
76967;DHT22;65904;52.278;20.972;2023-04-07T11:35:00;13.50;99.90
76967;DHT22;65904;52.278;20.972;2023-04-07T11:37:48;13.30;99.90
76967;DHT22;65904;52.278;20.972;2023-04-07T11:40:35;13.10;99.90
76967;DHT22;65904;52.278;20.972;2023-04-07T11:43:23;12.80;99.90
76967;DHT22;65904;52.278;20.972;2023-04-07T11:46:11;12.60;99.90
76967;DHT22;65904;52.278;20.972;2023-04-07T11:49:08;12.40;99.90
76967;DHT22;65904;52.278;20.972;2023-04-07T11:51:59;12.20;99.90
76967;DHT22;65904;52.278;20.972;2023-04-07T11:54:47;12.10;99.90
76967;DHT22;65904;52.278;20.972;2023-04-07T11:57:34;11.90;99.90
76967;DHT22;65904;52.278;20.972;2023-04-07T12:00:21;11.80;99.90
76967;DHT22;65904;52.278;20.972;2023-04-07T12:03:11;11.70;99.90
76967;DHT22;65904;52.278;20.972;2023-04-07T12:05:58;11.70;99.90
76967;DHT22;65904;52.278;20.972;2023-04-07T12:08:44;11.70;99.90
76967;DHT22;65904;52.278;20.972;2023-04-07T12:11:32;11.60;99.90
76967;DHT22;65904;52.278;20.972;2023-04-07T12:14:18;11.60;99.90
76967;DHT22;65904;52.278;20.972;2023-04-07T12:17:04;11.50;99.90
76967;DHT22;65904;52.278;20.972;2023-04-07T12:19:51;11.60;99.90
76967;DHT22;65904;52.278;20.972;2023-04-07T12:22:37;11.70;99.90
76967;DHT22;65904;52.278;20.972;2023-04-07T12:25:23;11.80;99.90
76967;DHT22;65904;52.278;20.972;2023-04-07T12:28:11;11.90;99.90
76967;DHT22;65904;52.278;20.972;2023-04-07T12:30:57;12.10;99.90
76967;DHT22;65904;52.278;20.972;2023-04-07T12:33:44;12.20;99.90
76967;DHT22;65904;52.278;20.972;2023-04-07T12:36:30;12.20;99.90
76967;DHT22;65904;52.278;20.972;2023-04-07T12:39:16;12.30;99.90
76967;DHT22;65904;52.278;20.972;2023-04-07T12:42:02;12.30;99.90
76967;DHT22;65904;52.278;20.972;2023-04-07T12:44:50;12.50;99.90
76967;DHT22;65904;52.278;20.972;2023-04-07T12:47:36;12.60;99.90
76967;DHT22;65904;52.278;20.972;2023-04-07T12:50:22;12.80;99.90
76967;DHT22;65904;52.278;20.972;2023-04-07T12:53:10;13.00;99.90
76967;DHT22;65904;52.278;20.972;2023-04-07T12:55:56;13.10;99.90
76967;DHT22;65904;52.278;20.972;2023-04-07T12:58:42;13.10;99.90
76967;DHT22;65904;52.278;20.972;2023-04-07T13:01:30;12.90;99.90
76967;DHT22;65904;52.278;20.972;2023-04-07T13:04:16;12.70;99.90
76967;DHT22;65904;52.278;20.972;2023-04-07T13:07:02;12.50;99.90
76967;DHT22;65904;52.278;20.972;2023-04-07T13:09:48;12.30;99.90
76967;DHT22;65904;52.278;20.972;2023-04-07T13:12:35;12.10;99.90
76967;DHT22;65904;52.278;20.972;2023-04-07T13:15:23;12.00;99.90
76967;DHT22;65904;52.278;20.972;2023-04-07T13:18:11;12.00;99.90
76967;DHT22;65904;52.278;20.972;2023-04-07T13:30:25;11.90;99.90
76967;DHT22;65904;52.278;20.972;2023-04-07T13:33:12;12.10;99.90
76967;DHT22;65904;52.278;20.972;2023-04-07T13:35:59;12.10;99.90
76967;DHT22;65904;52.278;20.972;2023-04-07T13:38:45;12.10;99.90
76967;DHT22;65904;52.278;20.972;2023-04-07T13:41:31;12.10;99.90
76967;DHT22;65904;52.278;20.972;2023-04-07T13:44:17;12.10;99.90
76967;DHT22;65904;52.278;20.972;2023-04-07T13:47:04;12.00;99.90
76967;DHT22;65904;52.278;20.972;2023-04-07T13:49:51;12.00;99.90
76967;DHT22;65904;52.278;20.972;2023-04-07T13:52:37;11.90;99.90
76967;DHT22;65904;52.278;20.972;2023-04-07T13:55:23;11.90;99.90
76967;DHT22;65904;52.278;20.972;2023-04-07T13:58:10;12.00;99.90
76967;DHT22;65904;52.278;20.972;2023-04-07T14:00:56;12.20;99.90
76967;DHT22;65904;52.278;20.972;2023-04-07T14:03:42;12.50;99.90
76967;DHT22;65904;52.278;20.972;2023-04-07T14:06:29;13.00;99.90
76967;DHT22;65904;52.278;20.972;2023-04-07T14:09:16;13.70;99.90
76967;DHT22;65904;52.278;20.972;2023-04-07T14:12:02;14.50;99.90
76967;DHT22;65904;52.278;20.972;2023-04-07T14:14:48;15.60;99.90
76967;DHT22;65904;52.278;20.972;2023-04-07T14:17:36;16.10;99.90
76967;DHT22;65904;52.278;20.972;2023-04-07T14:20:22;16.30;99.90
76967;DHT22;65904;52.278;20.972;2023-04-07T14:23:09;16.00;99.90
76967;DHT22;65904;52.278;20.972;2023-04-07T14:25:56;15.50;99.90
76967;DHT22;65904;52.278;20.972;2023-04-07T14:28:42;15.00;99.90
76967;DHT22;65904;52.278;20.972;2023-04-07T14:31:28;14.80;99.90
76967;DHT22;65904;52.278;20.972;2023-04-07T14:34:14;14.60;99.90
76967;DHT22;65904;52.278;20.972;2023-04-07T14:37:01;14.20;99.90
76967;DHT22;65904;52.278;20.972;2023-04-07T14:39:48;13.80;99.90
76967;DHT22;65904;52.278;20.972;2023-04-07T14:42:35;13.70;99.90
76967;DHT22;65904;52.278;20.972;2023-04-07T14:45:21;13.50;99.90
76967;DHT22;65904;52.278;20.972;2023-04-07T14:48:08;13.20;99.90
76967;DHT22;65904;52.278;20.972;2023-04-07T14:50:54;12.90;99.90
76967;DHT22;65904;52.278;20.972;2023-04-07T14:53:41;12.50;99.90
76967;DHT22;65904;52.278;20.972;2023-04-07T14:56:31;12.20;99.90
76967;DHT22;65904;52.278;20.972;2023-04-07T14:59:17;11.90;99.90
76967;DHT22;65904;52.278;20.972;2023-04-07T15:02:03;11.70;99.90
76967;DHT22;65904;52.278;20.972;2023-04-07T15:04:49;11.70;99.90
76967;DHT22;65904;52.278;20.972;2023-04-07T15:07:35;11.60;99.90
76967;DHT22;65904;52.278;20.972;2023-04-07T15:10:21;11.70;99.90
76967;DHT22;65904;52.278;20.972;2023-04-07T15:13:08;11.60;99.90
76967;DHT22;65904;52.278;20.972;2023-04-07T15:15:55;11.60;99.90
76967;DHT22;65904;52.278;20.972;2023-04-07T15:18:42;11.60;99.90
76967;DHT22;65904;52.278;20.972;2023-04-07T15:21:29;11.50;99.90
76967;DHT22;65904;52.278;20.972;2023-04-07T15:24:15;11.40;99.90
76967;DHT22;65904;52.278;20.972;2023-04-07T15:27:03;11.30;99.90
76967;DHT22;65904;52.278;20.972;2023-04-07T15:29:50;11.30;99.90
76967;DHT22;65904;52.278;20.972;2023-04-07T15:32:37;11.30;99.90
76967;DHT22;65904;52.278;20.972;2023-04-07T15:35:23;11.10;99.90
76967;DHT22;65904;52.278;20.972;2023-04-07T15:38:09;11.10;99.90
76967;DHT22;65904;52.278;20.972;2023-04-07T15:40:56;11.00;99.90
76967;DHT22;65904;52.278;20.972;2023-04-07T15:43:42;11.10;99.90
76967;DHT22;65904;52.278;20.972;2023-04-07T15:46:30;11.10;99.90
76967;DHT22;65904;52.278;20.972;2023-04-07T15:49:16;11.20;99.90
76967;DHT22;65904;52.278;20.972;2023-04-07T15:52:06;11.20;99.90
76967;DHT22;65904;52.278;20.972;2023-04-07T15:54:53;11.20;99.90
76967;DHT22;65904;52.278;20.972;2023-04-07T15:57:39;11.30;99.90
76967;DHT22;65904;52.278;20.972;2023-04-07T16:00:25;11.40;99.90
76967;DHT22;65904;52.278;20.972;2023-04-07T16:03:13;11.40;99.90
76967;DHT22;65904;52.278;20.972;2023-04-07T16:06:00;11.30;99.90
76967;DHT22;65904;52.278;20.972;2023-04-07T16:08:46;11.30;99.90
76967;DHT22;65904;52.278;20.972;2023-04-07T16:11:32;11.20;99.90
76967;DHT22;65904;52.278;20.972;2023-04-07T16:14:18;11.20;99.90
76967;DHT22;65904;52.278;20.972;2023-04-07T16:17:04;11.00;99.90
76967;DHT22;65904;52.278;20.972;2023-04-07T16:19:51;10.90;99.90
76967;DHT22;65904;52.278;20.972;2023-04-07T16:22:38;10.80;99.90
76967;DHT22;65904;52.278;20.972;2023-04-07T16:25:24;10.70;99.90
76967;DHT22;65904;52.278;20.972;2023-04-07T16:28:10;10.70;99.90
76967;DHT22;65904;52.278;20.972;2023-04-07T16:30:56;10.60;99.90
76967;DHT22;65904;52.278;20.972;2023-04-07T16:33:42;10.60;99.90
76967;DHT22;65904;52.278;20.972;2023-04-07T16:36:30;10.60;99.90
76967;DHT22;65904;52.278;20.972;2023-04-07T16:39:16;10.50;99.90
76967;DHT22;65904;52.278;20.972;2023-04-07T16:42:03;10.40;99.90
76967;DHT22;65904;52.278;20.972;2023-04-07T16:44:49;10.30;99.90
76967;DHT22;65904;52.278;20.972;2023-04-07T16:47:36;10.20;99.90
76967;DHT22;65904;52.278;20.972;2023-04-07T16:50:23;10.10;99.90
76967;DHT22;65904;52.278;20.972;2023-04-07T16:53:10;10.00;99.90
76967;DHT22;65904;52.278;20.972;2023-04-07T16:55:57;10.00;99.90
76967;DHT22;65904;52.278;20.972;2023-04-07T16:58:43;9.80;99.90
76967;DHT22;65904;52.278;20.972;2023-04-07T17:01:29;9.70;99.90
76967;DHT22;65904;52.278;20.972;2023-04-07T17:04:15;9.60;99.90
76967;DHT22;65904;52.278;20.972;2023-04-07T17:07:01;9.50;99.90
76967;DHT22;65904;52.278;20.972;2023-04-07T17:09:48;9.40;99.90
76967;DHT22;65904;52.278;20.972;2023-04-07T17:12:34;9.30;99.90
76967;DHT22;65904;52.278;20.972;2023-04-07T17:15:20;9.20;99.90
76967;DHT22;65904;52.278;20.972;2023-04-07T17:18:07;9.10;99.90
76967;DHT22;65904;52.278;20.972;2023-04-07T17:20:53;9.10;99.90
76967;DHT22;65904;52.278;20.972;2023-04-07T17:23:39;9.10;99.90
76967;DHT22;65904;52.278;20.972;2023-04-07T17:26:26;9.10;99.90
76967;DHT22;65904;52.278;20.972;2023-04-07T17:29:13;9.10;99.90
76967;DHT22;65904;52.278;20.972;2023-04-07T17:32:00;9.00;99.90
76967;DHT22;65904;52.278;20.972;2023-04-07T17:34:46;9.00;99.90
76967;DHT22;65904;52.278;20.972;2023-04-07T17:37:32;9.00;99.90
76967;DHT22;65904;52.278;20.972;2023-04-07T17:40:18;9.00;99.90
76967;DHT22;65904;52.278;20.972;2023-04-07T17:43:06;8.90;99.90